Terminal Aerodrome Forecast
Issued by NWS

Home | Current Version | Previous Version | Text Only | Print | Product List | Glossary On
Versions: 1 2 3 4 5 6 7 8 9 10 11 12 13 14 15 16 17 18 19 20 21 22 23 24 25 26 27 28 29 30 31
000
FTAK31 PAFA 281136
TAFAOM
TAF
PAOM 281136Z 2812/2912 06003KT P6SM -RA BKN026 OVC035
     FM281500 20008KT P6SM -SHRA SCT007 OVC015
     FM281700 18010KT P6SM SCT020 OVC040
     FM290200 14006KT P6SM SCT040 SCT100=

USA.gov is the U.S. government's official web portal to all federal, state and local government web resources and services.